createdAt,value
2018-09-04T00:00:22.147Z,95.70
2018-09-04T00:02:50.757Z,96.00
2018-09-04T00:05:19.327Z,96.50
2018-09-04T00:07:47.937Z,96.20
2018-09-04T00:10:16.624Z,96.10
2018-09-04T00:12:45.232Z,96.30
2018-09-04T00:15:13.812Z,95.70
2018-09-04T00:17:42.525Z,95.50
2018-09-04T00:20:11.098Z,95.20
2018-09-04T00:22:39.696Z,94.90
2018-09-04T00:25:08.326Z,95.30
2018-09-04T00:27:36.926Z,96.50
2018-09-04T00:30:06.546Z,95.70
2018-09-04T00:32:35.147Z,95.70
2018-09-04T00:35:03.759Z,95.10
2018-09-04T00:37:32.397Z,95.00
2018-09-04T00:40:01.026Z,95.50
2018-09-04T00:42:29.654Z,95.40
2018-09-04T00:44:58.339Z,95.80
2018-09-04T00:47:26.908Z,95.90
2018-09-04T00:49:55.496Z,95.40
2018-09-04T00:52:24.230Z,95.70
2018-09-04T00:54:52.829Z,97.30
2018-09-04T00:57:21.406Z,96.00
2018-09-04T00:59:50.243Z,96.30
2018-09-04T01:02:18.829Z,96.10
2018-09-04T01:04:48.322Z,96.80
2018-09-04T01:07:17.537Z,95.50
2018-09-04T01:09:46.141Z,96.80
2018-09-04T01:12:14.718Z,96.80
2018-09-04T01:14:43.312Z,95.80
2018-09-04T01:17:11.881Z,95.40
2018-09-04T01:19:40.488Z,95.00
2018-09-04T01:22:09.122Z,95.40
2018-09-04T01:24:37.841Z,95.10
2018-09-04T01:27:06.529Z,95.40
2018-09-04T01:29:35.190Z,95.00
2018-09-04T01:32:03.905Z,95.20
2018-09-04T01:34:32.536Z,95.30
2018-09-04T01:37:01.157Z,95.90
2018-09-04T01:39:29.806Z,96.00
2018-09-04T01:41:58.395Z,95.80
2018-09-04T01:44:26.984Z,96.70
2018-09-04T01:46:55.541Z,97.20
2018-09-04T01:49:24.153Z,96.80
2018-09-04T01:51:52.730Z,97.00
2018-09-04T01:54:21.422Z,96.40
2018-09-04T01:56:50.005Z,96.70
2018-09-04T01:59:18.605Z,96.60
2018-09-04T02:01:47.244Z,96.70
2018-09-04T02:04:15.834Z,96.10
2018-09-04T02:06:44.458Z,96.20
2018-09-04T02:09:13.433Z,95.80
2018-09-04T02:11:42.005Z,96.40
2018-09-04T02:14:10.585Z,95.90
2018-09-04T02:16:39.181Z,96.40
2018-09-04T02:19:07.767Z,95.90
2018-09-04T02:21:36.358Z,96.10
2018-09-04T02:24:04.976Z,96.40
2018-09-04T02:26:33.573Z,97.20
2018-09-04T02:29:02.171Z,95.80
2018-09-04T02:31:30.780Z,96.10
2018-09-04T02:33:59.598Z,96.90
2018-09-04T02:36:28.222Z,97.00
2018-09-04T02:38:56.785Z,95.80
2018-09-04T02:41:25.361Z,96.20
2018-09-04T02:43:54.321Z,96.30
2018-09-04T02:46:23.050Z,95.80
2018-09-04T02:48:51.634Z,96.20
2018-09-04T02:51:20.290Z,96.20
2018-09-04T02:53:48.913Z,96.60
2018-09-04T02:56:17.526Z,97.00
2018-09-04T02:58:46.114Z,96.40
2018-09-04T03:01:14.789Z,96.10
2018-09-04T03:03:43.390Z,95.90
2018-09-04T03:06:12.092Z,96.70
2018-09-04T03:08:40.664Z,95.90
2018-09-04T03:11:09.260Z,95.00
2018-09-04T03:13:37.874Z,96.30
2018-09-04T03:16:06.770Z,95.30
2018-09-04T03:18:36.322Z,95.40
2018-09-04T03:21:04.922Z,95.50
2018-09-04T03:23:33.495Z,96.30
2018-09-04T03:26:02.127Z,96.40
2018-09-04T03:28:30.694Z,96.20
2018-09-04T03:30:59.358Z,96.70
2018-09-04T03:33:28.111Z,96.70
2018-09-04T03:35:56.878Z,95.30
2018-09-04T03:38:25.443Z,96.10
2018-09-04T03:40:54.065Z,95.50
2018-09-04T03:43:22.655Z,96.10
2018-09-04T03:45:52.025Z,95.10
2018-09-04T03:48:20.666Z,96.90
2018-09-04T03:50:49.342Z,96.00
2018-09-04T03:53:18.040Z,95.50
2018-09-04T03:55:46.637Z,95.70
2018-09-04T03:58:15.213Z,95.80
2018-09-04T04:00:43.813Z,95.60
2018-09-04T04:03:12.442Z,96.50
2018-09-04T04:05:41.158Z,95.70
2018-09-04T04:08:09.770Z,95.00
2018-09-04T04:10:38.378Z,95.10
2018-09-04T04:13:07.025Z,95.50
2018-09-04T04:15:35.714Z,95.70
2018-09-04T04:18:04.611Z,96.20
2018-09-04T04:20:33.204Z,96.60
2018-09-04T04:23:01.819Z,96.80
2018-09-04T04:25:30.469Z,96.90
2018-09-04T04:27:59.153Z,96.90
2018-09-04T04:30:27.745Z,96.60
2018-09-04T04:32:56.439Z,96.10
2018-09-04T04:35:25.519Z,96.20
2018-09-04T04:37:54.120Z,97.30
2018-09-04T04:40:22.714Z,96.50
2018-09-04T04:42:51.311Z,98.20
2018-09-04T04:45:20.004Z,98.90
2018-09-04T04:47:49.256Z,97.40
2018-09-04T04:50:18.439Z,96.50
2018-09-04T04:52:47.029Z,97.50
2018-09-04T04:55:15.608Z,96.70
2018-09-04T04:57:44.198Z,96.50
2018-09-04T05:00:12.819Z,96.60
2018-09-04T05:02:41.430Z,95.90
2018-09-04T05:05:10.046Z,97.30
2018-09-04T05:07:38.796Z,96.50
2018-09-04T05:10:07.842Z,96.20
2018-09-04T05:12:36.493Z,94.90
2018-09-04T05:15:05.377Z,96.90
2018-09-04T05:17:34.035Z,96.40
2018-09-04T05:20:02.793Z,96.70
2018-09-04T05:22:31.948Z,96.40
2018-09-04T05:25:00.583Z,96.50
2018-09-04T05:27:29.176Z,96.40
2018-09-04T05:29:57.762Z,96.80
2018-09-04T05:32:40.487Z,97.00
2018-09-04T05:35:11.123Z,96.70
2018-09-04T05:37:40.169Z,97.20
2018-09-04T05:40:08.790Z,97.70
2018-09-04T05:42:55.920Z,97.70
2018-09-04T05:45:26.198Z,96.80
2018-09-04T05:48:00.047Z,97.80
2018-09-04T05:50:28.721Z,97.70
2018-09-04T05:52:57.505Z,97.40
2018-09-04T05:55:26.084Z,97.00
2018-09-04T05:57:54.704Z,96.80
2018-09-04T06:00:31.572Z,96.10
2018-09-04T06:03:00.189Z,97.50
2018-09-04T06:05:28.781Z,99.60
2018-09-04T06:07:57.377Z,99.40
2018-09-04T06:10:25.988Z,98.60
2018-09-04T06:12:54.611Z,97.40
2018-09-04T06:15:23.202Z,98.40
2018-09-04T06:17:51.794Z,99.50
2018-09-04T06:20:20.489Z,98.60
2018-09-04T06:22:49.174Z,97.70
2018-09-04T06:25:17.773Z,99.70
2018-09-04T06:27:46.369Z,98.60
2018-09-04T06:30:15.280Z,97.70
2018-09-04T06:32:43.841Z,98.60
2018-09-04T06:35:12.452Z,98.30
2018-09-04T06:37:41.043Z,98.30
2018-09-04T06:40:09.685Z,97.90
2018-09-04T06:42:38.258Z,98.00
2018-09-04T06:45:07.809Z,98.20
2018-09-04T06:47:36.411Z,97.50
2018-09-04T06:50:05.115Z,97.30
2018-09-04T06:52:33.698Z,98.10
2018-09-04T06:55:02.299Z,96.90
2018-09-04T06:57:30.925Z,96.40
2018-09-04T06:59:59.535Z,97.10
2018-09-04T07:02:28.118Z,97.50
2018-09-04T07:04:56.733Z,97.80
2018-09-04T07:07:25.326Z,97.60
2018-09-04T07:09:53.940Z,96.00
2018-09-04T07:12:22.832Z,95.40
2018-09-04T07:14:51.547Z,95.90
2018-09-04T07:17:20.122Z,94.50
2018-09-04T07:19:48.720Z,93.80
2018-09-04T07:22:17.295Z,93.30
2018-09-04T07:24:45.919Z,92.20
2018-09-04T07:27:14.527Z,91.30
2018-09-04T07:29:43.134Z,92.00
2018-09-04T07:32:11.747Z,90.90
2018-09-04T07:34:40.383Z,88.80
2018-09-04T07:37:08.965Z,90.10
2018-09-04T07:39:37.564Z,88.30
2018-09-04T07:42:06.275Z,85.40
2018-09-04T07:44:35.037Z,86.00
2018-09-04T07:47:03.632Z,84.80
2018-09-04T07:49:32.204Z,81.10
2018-09-04T07:52:00.817Z,80.40
2018-09-04T07:54:29.389Z,79.30
2018-09-04T07:56:58.058Z,77.60
2018-09-04T07:59:27.305Z,77.30
2018-09-04T08:01:55.915Z,74.70
2018-09-04T08:04:24.488Z,74.60
2018-09-04T08:06:53.216Z,73.80
2018-09-04T08:09:21.810Z,70.70
2018-09-04T08:11:50.456Z,67.60
2018-09-04T08:14:19.233Z,66.70
2018-09-04T08:16:47.894Z,65.90
2018-09-04T08:19:16.467Z,66.50
2018-09-04T08:21:45.090Z,60.60
2018-09-04T08:24:13.651Z,63.90
2018-09-04T08:26:42.511Z,60.60
2018-09-04T08:29:11.206Z,62.90
2018-09-04T08:31:39.798Z,60.50
2018-09-04T08:34:08.386Z,57.40
2018-09-04T08:36:37.026Z,59.90
2018-09-04T08:39:07.735Z,57.90
2018-09-04T08:41:36.337Z,58.70
2018-09-04T08:44:05.111Z,53.50
2018-09-04T08:46:34.230Z,57.50
2018-09-04T08:49:02.818Z,53.40
2018-09-04T08:51:31.405Z,53.50
2018-09-04T08:54:00.497Z,58.90
2018-09-04T08:56:29.124Z,51.40
2018-09-04T08:58:57.898Z,51.30
2018-09-04T09:01:26.504Z,51.00
2018-09-04T09:03:55.242Z,48.90
2018-09-04T09:06:23.779Z,53.00
2018-09-04T09:08:52.345Z,47.50
2018-09-04T09:11:21.042Z,48.00
2018-09-04T09:13:49.614Z,51.30
2018-09-04T09:16:18.231Z,50.60
2018-09-04T09:18:46.810Z,49.70
2018-09-04T09:21:15.402Z,47.40
2018-09-04T09:23:43.977Z,48.80
2018-09-04T09:26:12.578Z,49.40
2018-09-04T09:28:41.150Z,45.90
2018-09-04T09:31:09.766Z,48.20
2018-09-04T09:33:38.342Z,46.60
2018-09-04T09:36:06.961Z,48.40
2018-09-04T09:38:35.702Z,45.70
2018-09-04T09:41:04.335Z,46.70
2018-09-04T09:43:33.031Z,46.90
2018-09-04T09:46:01.616Z,44.60
2018-09-04T09:48:35.376Z,46.60
2018-09-04T09:51:04.070Z,45.00
2018-09-04T09:53:32.895Z,43.20
2018-09-04T09:56:01.319Z,41.60
2018-09-04T09:58:29.934Z,44.80
2018-09-04T10:01:03.826Z,43.10
2018-09-04T10:03:37.758Z,46.00
2018-09-04T10:06:06.385Z,43.50
2018-09-04T10:08:35.013Z,40.20
2018-09-04T10:11:03.598Z,42.10
2018-09-04T10:13:32.201Z,44.50
2018-09-04T10:16:00.791Z,39.30
2018-09-04T10:18:29.442Z,40.20
2018-09-04T10:20:58.029Z,42.30
2018-09-04T10:23:26.669Z,38.90
2018-09-04T10:25:55.306Z,39.10
2018-09-04T10:28:23.903Z,39.40
2018-09-04T10:30:52.482Z,39.10
2018-09-04T10:33:21.078Z,41.00
2018-09-04T10:35:49.724Z,41.80
2018-09-04T10:38:18.330Z,41.80
2018-09-04T10:40:47.920Z,44.00
2018-09-04T10:43:16.571Z,44.60
2018-09-04T10:45:50.446Z,44.70
2018-09-04T10:48:26.359Z,46.30
2018-09-04T10:50:55.014Z,46.30
2018-09-04T10:53:23.646Z,46.30
2018-09-04T10:55:52.303Z,45.60
2018-09-04T10:58:20.938Z,45.20
2018-09-04T11:00:49.529Z,45.70
2018-09-04T11:03:18.148Z,45.60
2018-09-04T11:05:46.778Z,47.70
2018-09-04T11:08:15.385Z,45.90
2018-09-04T11:10:44.027Z,47.40
2018-09-04T11:13:12.684Z,47.30
2018-09-04T11:15:41.334Z,48.30
2018-09-04T11:18:10.037Z,49.10
2018-09-04T11:20:38.835Z,48.10
2018-09-04T11:23:07.462Z,48.70
2018-09-04T11:25:36.060Z,48.80
2018-09-04T11:28:04.884Z,48.60
2018-09-04T11:30:33.522Z,49.60
2018-09-04T11:33:02.105Z,48.20
2018-09-04T11:35:30.773Z,49.80
2018-09-04T11:37:59.387Z,49.80
2018-09-04T11:40:28.055Z,49.90
2018-09-04T11:42:56.621Z,51.60
2018-09-04T11:45:25.475Z,51.70
2018-09-04T11:47:54.066Z,51.30
2018-09-04T11:50:22.673Z,51.40
2018-09-04T11:52:51.248Z,50.50
2018-09-04T11:55:19.854Z,50.50
2018-09-04T11:57:48.469Z,51.70
2018-09-04T12:00:20.425Z,50.60
2018-09-04T12:02:49.082Z,50.80
2018-09-04T12:05:17.717Z,52.30
2018-09-04T12:07:48.720Z,52.30
2018-09-04T12:10:17.319Z,52.40
2018-09-04T12:12:46.119Z,51.90
2018-09-04T12:15:14.690Z,52.80
2018-09-04T12:17:43.262Z,50.60
2018-09-04T12:20:28.327Z,52.20
2018-09-04T12:22:56.938Z,52.40
2018-09-04T12:25:26.210Z,50.40
2018-09-04T12:27:54.817Z,51.40
2018-09-04T12:30:23.463Z,52.00
2018-09-04T12:32:52.248Z,53.10
2018-09-04T12:35:20.861Z,53.00
2018-09-04T12:37:49.424Z,54.00
2018-09-04T12:40:18.910Z,54.10
2018-09-04T12:42:47.483Z,54.30
2018-09-04T12:45:16.116Z,54.50
2018-09-04T12:47:45.344Z,54.70
2018-09-04T12:50:13.982Z,54.60
2018-09-04T12:52:42.549Z,55.50
2018-09-04T12:55:11.155Z,56.10
2018-09-04T12:57:39.729Z,56.00
2018-09-04T13:00:08.794Z,56.30
2018-09-04T13:02:37.415Z,56.70
2018-09-04T13:05:06.226Z,56.40
2018-09-04T13:07:34.891Z,56.50
2018-09-04T13:10:03.578Z,56.20
2018-09-04T13:12:32.168Z,57.60
2018-09-04T13:15:00.827Z,58.10
2018-09-04T13:17:29.415Z,57.80
2018-09-04T13:19:58.085Z,57.90
2018-09-04T13:22:26.649Z,58.20
2018-09-04T13:24:55.874Z,58.50
2018-09-04T13:27:26.129Z,58.90
2018-09-04T13:29:55.542Z,57.90
2018-09-04T13:32:24.120Z,57.40
2018-09-04T13:34:52.760Z,56.20
2018-09-04T13:37:22.614Z,56.70
2018-09-04T13:39:58.792Z,54.50
2018-09-04T13:42:28.918Z,55.80
2018-09-04T13:44:58.027Z,56.50
2018-09-04T13:47:28.642Z,56.20
2018-09-04T13:49:57.843Z,56.00
2018-09-04T13:52:27.554Z,56.30
2018-09-04T13:54:56.230Z,56.50
2018-09-04T13:57:25.197Z,55.50
2018-09-04T13:59:53.803Z,55.30
2018-09-04T14:02:22.445Z,55.60
2018-09-04T14:04:52.030Z,54.50
2018-09-04T14:07:20.748Z,54.60
2018-09-04T14:09:49.602Z,54.70
2018-09-04T14:12:25.254Z,55.10
2018-09-04T14:14:53.896Z,56.00
2018-09-04T14:17:22.548Z,56.20
2018-09-04T14:19:51.118Z,54.90
2018-09-04T14:22:19.758Z,53.90
2018-09-04T14:24:48.518Z,55.30
2018-09-04T14:27:17.164Z,54.70
2018-09-04T14:29:53.778Z,55.60
2018-09-04T14:32:14.563Z,56.20
2018-09-04T14:34:43.190Z,56.40
2018-09-04T14:37:13.282Z,54.70
2018-09-04T14:39:41.676Z,55.80
2018-09-04T14:42:10.358Z,56.40
2018-09-04T14:44:38.934Z,56.40
2018-09-04T14:47:08.203Z,55.50
2018-09-04T14:49:37.511Z,56.30
2018-09-04T14:52:06.377Z,56.50
2018-09-04T14:54:34.937Z,57.10
2018-09-04T14:57:03.559Z,57.40
2018-09-04T14:59:32.209Z,58.10
2018-09-04T15:02:00.801Z,58.70
2018-09-04T15:04:29.382Z,58.50
2018-09-04T15:06:57.981Z,58.00
2018-09-04T15:09:26.645Z,58.70
2018-09-04T15:11:55.262Z,58.80
2018-09-04T15:14:23.843Z,59.00
2018-09-04T15:16:53.542Z,59.40
2018-09-04T15:19:22.129Z,59.10
2018-09-04T15:21:50.733Z,59.20
2018-09-04T15:24:19.389Z,59.60
2018-09-04T15:26:48.233Z,60.50
2018-09-04T15:29:16.822Z,59.10
2018-09-04T15:31:45.702Z,58.90
2018-09-04T15:34:14.425Z,59.70
2018-09-04T15:36:43.010Z,60.20
2018-09-04T15:39:11.638Z,59.40
2018-09-04T15:41:40.230Z,60.30
2018-09-04T15:44:08.826Z,62.60
2018-09-04T15:46:37.533Z,64.70
2018-09-04T15:49:11.600Z,65.00
2018-09-04T15:51:40.182Z,66.10
2018-09-04T15:54:09.205Z,66.60
2018-09-04T15:56:37.856Z,67.00
2018-09-04T15:59:06.576Z,68.20
2018-09-04T16:01:35.179Z,69.10
2018-09-04T16:04:03.794Z,69.80
2018-09-04T16:06:32.384Z,69.40
2018-09-04T16:09:01.020Z,69.80
2018-09-04T16:11:29.586Z,71.40
2018-09-04T16:13:58.303Z,71.60
2018-09-04T16:16:27.146Z,71.70
2018-09-04T16:18:55.753Z,71.90
2018-09-04T16:21:24.350Z,73.40
2018-09-04T16:23:52.954Z,75.10
2018-09-04T16:26:21.564Z,75.70
2018-09-04T16:28:50.182Z,76.40
2018-09-04T16:31:18.802Z,76.60
2018-09-04T16:33:47.489Z,75.80
2018-09-04T16:36:16.185Z,76.70
2018-09-04T16:38:44.745Z,77.10
2018-09-04T16:41:13.330Z,76.70
2018-09-04T16:43:41.944Z,76.30
2018-09-04T16:46:11.037Z,77.80
2018-09-04T16:48:39.735Z,77.90
2018-09-04T16:51:08.285Z,77.90
2018-09-04T16:53:36.887Z,78.10
2018-09-04T16:56:05.522Z,77.80
2018-09-04T16:58:34.232Z,78.10
2018-09-04T17:01:02.805Z,78.80
2018-09-04T17:03:31.405Z,78.80
2018-09-04T17:05:59.982Z,78.80
2018-09-04T17:08:28.608Z,79.80
2018-09-04T17:10:57.189Z,80.60
2018-09-04T17:13:25.784Z,80.50
2018-09-04T17:15:54.376Z,79.60
2018-09-04T17:18:23.040Z,79.30
2018-09-04T17:20:51.626Z,78.80
2018-09-04T17:23:20.192Z,79.10
2018-09-04T17:25:48.840Z,79.60
2018-09-04T17:28:17.433Z,80.20
2018-09-04T17:30:46.029Z,80.40
2018-09-04T17:33:14.655Z,80.50
2018-09-04T17:35:43.593Z,79.90
2018-09-04T17:38:12.249Z,79.70
2018-09-04T17:40:40.841Z,79.50
2018-09-04T17:43:09.617Z,79.70
2018-09-04T17:45:38.252Z,80.90
2018-09-04T17:48:07.082Z,81.90
2018-09-04T17:50:35.721Z,82.30
2018-09-04T17:53:04.314Z,82.60
2018-09-04T17:55:33.012Z,81.30
2018-09-04T17:58:01.622Z,82.30
2018-09-04T18:00:34.899Z,82.40
2018-09-04T18:03:06.462Z,81.90
2018-09-04T18:05:35.057Z,82.20
2018-09-04T18:08:04.352Z,82.20
2018-09-04T18:10:33.077Z,82.40
2018-09-04T18:13:01.649Z,82.70
2018-09-04T18:15:30.255Z,81.40
2018-09-04T18:17:58.970Z,84.20
2018-09-04T18:20:27.586Z,83.70
2018-09-04T18:22:56.170Z,84.80
2018-09-04T18:25:24.910Z,84.00
2018-09-04T18:27:53.478Z,84.10
2018-09-04T18:30:22.933Z,82.80
2018-09-04T18:32:51.518Z,82.50
2018-09-04T18:35:20.138Z,84.20
2018-09-04T18:37:48.822Z,83.80
2018-09-04T18:40:17.429Z,84.00
2018-09-04T18:42:46.034Z,83.80
2018-09-04T18:45:25.864Z,84.90
2018-09-04T18:47:54.861Z,84.80
2018-09-04T18:50:23.465Z,85.70
2018-09-04T18:52:52.678Z,86.30
2018-09-04T18:55:21.286Z,86.10
2018-09-04T18:57:50.558Z,86.60
2018-09-04T19:00:19.392Z,87.20
2018-09-04T19:02:49.474Z,87.00
2018-09-04T19:05:18.146Z,87.40
2018-09-04T19:07:46.789Z,86.70
2018-09-04T19:10:15.411Z,87.70
2018-09-04T19:12:45.086Z,87.90
2018-09-04T19:15:13.760Z,87.40
2018-09-04T19:17:42.530Z,88.00
2018-09-04T19:20:11.134Z,87.50
2018-09-04T19:22:40.417Z,88.40
2018-09-04T19:25:09.016Z,86.90
2018-09-04T19:27:39.280Z,86.90
2018-09-04T19:30:08.069Z,87.90
2018-09-04T19:32:36.686Z,87.60
2018-09-04T19:35:05.381Z,87.00
2018-09-04T19:37:34.100Z,87.30
2018-09-04T19:40:03.394Z,89.50
2018-09-04T19:42:32.651Z,89.20
2018-09-04T19:45:01.235Z,90.20
2018-09-04T19:47:29.850Z,89.50
2018-09-04T19:49:58.715Z,89.40
2018-09-04T19:52:27.418Z,90.00
2018-09-04T19:54:57.042Z,89.30
2018-09-04T19:57:25.646Z,90.00
2018-09-04T19:59:54.225Z,89.60
2018-09-04T20:02:22.989Z,89.80
2018-09-04T20:04:51.566Z,90.40
2018-09-04T20:07:20.251Z,89.80
2018-09-04T20:09:48.854Z,89.30
2018-09-04T20:12:17.445Z,90.80
2018-09-04T20:14:46.041Z,89.80
2018-09-04T20:17:14.618Z,90.40
2018-09-04T20:19:43.223Z,90.00
2018-09-04T20:22:11.834Z,89.70
2018-09-04T20:24:40.469Z,90.20
2018-09-04T20:27:09.046Z,90.00
2018-09-04T20:29:37.820Z,90.00
2018-09-04T20:32:06.400Z,90.00
2018-09-04T20:34:35.007Z,90.30
2018-09-04T20:37:03.644Z,90.60
2018-09-04T20:39:32.243Z,91.00
2018-09-04T20:42:00.822Z,92.00
2018-09-04T20:44:29.446Z,92.00
2018-09-04T20:46:58.083Z,91.60
2018-09-04T20:49:26.687Z,90.90
2018-09-04T20:51:55.272Z,91.60
2018-09-04T20:54:24.057Z,92.10
2018-09-04T20:57:00.106Z,91.40
2018-09-04T20:59:40.069Z,92.00
2018-09-04T21:02:20.490Z,91.90
2018-09-04T21:05:00.395Z,91.30
2018-09-04T21:07:45.345Z,91.30
2018-09-04T21:10:14.149Z,91.60
2018-09-04T21:12:42.734Z,91.30
2018-09-04T21:15:11.330Z,91.90
2018-09-04T21:17:39.910Z,91.90
2018-09-04T21:20:08.509Z,91.70
2018-09-04T21:22:37.170Z,91.70
2018-09-04T21:25:06.268Z,91.80
2018-09-04T21:27:34.838Z,92.50
2018-09-04T21:30:03.600Z,91.90
2018-09-04T21:32:32.166Z,92.30
2018-09-04T21:35:01.551Z,92.40
2018-09-04T21:37:30.167Z,91.60
2018-09-04T21:39:58.760Z,91.30
2018-09-04T21:42:27.360Z,91.20
2018-09-04T21:44:55.942Z,91.90
2018-09-04T21:47:24.525Z,91.80
2018-09-04T21:49:53.117Z,92.20
2018-09-04T21:52:21.714Z,92.30
2018-09-04T21:54:50.325Z,91.80
2018-09-04T21:57:19.549Z,91.00
2018-09-04T21:59:48.176Z,92.20
2018-09-04T22:02:16.813Z,91.70
2018-09-04T22:04:45.496Z,92.20
2018-09-04T22:07:14.061Z,92.20
2018-09-04T22:09:42.661Z,92.30
2018-09-04T22:12:11.984Z,92.60
2018-09-04T22:14:40.999Z,92.90
2018-09-04T22:17:15.997Z,92.70
2018-09-04T22:19:44.600Z,92.60
2018-09-04T22:22:13.306Z,93.40
2018-09-04T22:24:41.914Z,92.40
2018-09-04T22:27:10.846Z,91.60
2018-09-04T22:29:42.636Z,93.30
2018-09-04T22:32:12.136Z,92.80
2018-09-04T22:34:40.705Z,92.50
2018-09-04T22:37:09.320Z,93.30
2018-09-04T22:39:37.885Z,93.50
2018-09-04T22:42:06.515Z,93.30
2018-09-04T22:44:35.160Z,93.10
2018-09-04T22:47:03.800Z,93.20
2018-09-04T22:49:32.445Z,92.40
2018-09-04T22:52:01.930Z,93.80
2018-09-04T22:54:30.501Z,92.90
2018-09-04T22:56:59.105Z,92.90
2018-09-04T22:59:28.077Z,93.10
2018-09-04T23:01:56.805Z,93.10
2018-09-04T23:04:25.379Z,93.80
2018-09-04T23:06:53.968Z,94.00
2018-09-04T23:09:22.572Z,93.10
2018-09-04T23:11:51.169Z,93.50
2018-09-04T23:14:19.765Z,93.00
2018-09-04T23:16:48.394Z,93.20
2018-09-04T23:19:16.970Z,95.20
2018-09-04T23:21:45.606Z,93.60
2018-09-04T23:24:14.182Z,92.70
2018-09-04T23:26:42.782Z,93.20
2018-09-04T23:29:11.406Z,92.10
2018-09-04T23:31:40.023Z,93.90
2018-09-04T23:34:08.606Z,92.80
2018-09-04T23:36:37.256Z,94.20
2018-09-04T23:39:06.469Z,93.80
2018-09-04T23:41:35.140Z,93.70
2018-09-04T23:44:03.821Z,93.80
2018-09-04T23:46:32.802Z,94.80
2018-09-04T23:49:01.460Z,93.70
2018-09-04T23:51:30.057Z,92.80
2018-09-04T23:53:58.621Z,93.10
2018-09-04T23:56:27.229Z,93.80
2018-09-04T23:58:55.813Z,94.60
